createdAt,value
2019-02-25T10:05:37.483Z,13.27
2019-02-25T10:08:10.327Z,13.72
2019-02-25T10:10:43.094Z,14.14
2019-02-25T10:13:15.908Z,14.56
2019-02-25T10:15:48.788Z,14.94
2019-02-25T10:18:21.516Z,15.31
2019-02-25T10:20:54.300Z,15.72
2019-02-25T10:23:28.153Z,16.10
2019-02-25T10:26:00.991Z,16.50
2019-02-25T10:28:33.941Z,16.83
2019-02-25T10:31:06.793Z,17.16
2019-02-25T10:33:39.577Z,17.45
2019-02-25T10:36:12.347Z,17.74
2019-02-25T10:38:45.177Z,17.82
2019-02-25T10:41:19.698Z,17.85
2019-02-25T10:43:52.387Z,17.95
2019-02-25T10:46:25.202Z,17.96
2019-02-25T10:48:59.195Z,18.06
2019-02-25T10:51:32.523Z,18.14
2019-02-25T10:54:05.585Z,18.09
2019-02-25T10:56:59.583Z,18.00
2019-02-25T10:59:34.451Z,17.92
2019-02-25T11:02:08.599Z,17.82
2019-02-25T11:04:41.955Z,17.75
2019-02-25T11:07:14.843Z,17.67
2019-02-25T11:09:55.859Z,17.58
2019-02-25T11:12:32.151Z,17.51
2019-02-25T11:15:07.470Z,17.40
2019-02-25T11:17:40.515Z,17.27
2019-02-25T11:20:14.765Z,17.06
2019-02-25T11:22:48.667Z,16.85
2019-02-25T11:25:23.526Z,16.66
2019-02-25T11:27:57.089Z,16.43
2019-02-25T11:30:30.130Z,16.27
2019-02-25T11:33:03.059Z,16.16
2019-02-25T11:35:36.622Z,16.05
2019-02-25T11:38:10.622Z,15.97
2019-02-25T11:40:43.514Z,15.93
2019-02-25T11:43:18.669Z,15.93
2019-02-25T11:45:51.074Z,15.92
2019-02-25T11:48:23.911Z,15.94
2019-02-25T11:50:56.782Z,16.00
2019-02-25T11:53:29.693Z,16.07
2019-02-25T11:56:04.370Z,16.16
2019-02-25T11:58:37.274Z,16.19
2019-02-25T12:01:10.023Z,16.13
2019-02-25T12:03:43.105Z,16.14
2019-02-25T12:06:16.007Z,16.19
2019-02-25T12:08:48.825Z,16.17
2019-02-25T12:11:21.627Z,16.14
2019-02-25T12:13:54.509Z,16.10
2019-02-25T12:16:27.342Z,16.09
2019-02-25T12:19:00.297Z,16.05
2019-02-25T12:21:33.183Z,16.05
2019-02-25T12:24:06.272Z,16.06
2019-02-25T12:26:39.188Z,16.07
2019-02-25T12:29:12.096Z,16.09
2019-02-25T12:31:44.879Z,16.12
2019-02-25T12:34:17.776Z,16.13
2019-02-25T12:36:50.708Z,16.06
2019-02-25T12:39:23.736Z,16.03
2019-02-25T12:41:56.643Z,15.97
2019-02-25T12:44:29.580Z,15.96
2019-02-25T12:47:02.616Z,15.92
2019-02-25T12:49:35.590Z,15.92
2019-02-25T12:52:08.547Z,15.94
2019-02-25T12:54:41.443Z,15.96
2019-02-25T12:57:14.326Z,15.92
2019-02-25T12:59:47.332Z,15.93
2019-02-25T13:02:21.254Z,15.99
2019-02-25T13:04:54.097Z,16.05
2019-02-25T13:07:26.965Z,16.05
2019-02-25T13:09:59.970Z,16.00
2019-02-25T13:12:32.895Z,15.99
2019-02-25T13:15:13.341Z,15.90
2019-02-25T13:17:41.414Z,15.80
2019-02-25T13:20:14.760Z,15.76
2019-02-25T13:22:47.681Z,15.78
2019-02-25T13:25:20.653Z,15.76
2019-02-25T13:27:54.381Z,15.70
2019-02-25T13:30:27.930Z,15.65
2019-02-25T13:33:00.897Z,15.62
2019-02-25T13:35:34.256Z,15.48
2019-02-25T13:38:07.117Z,15.41
2019-02-25T13:40:40.089Z,15.34
2019-02-25T13:43:12.987Z,15.25
2019-02-25T13:45:50.186Z,15.20
2019-02-25T13:48:24.199Z,15.15
2019-02-25T13:50:57.165Z,15.09
2019-02-25T13:53:30.090Z,15.04
2019-02-25T13:56:03.323Z,15.03
2019-02-25T13:58:36.281Z,14.97
2019-02-25T14:01:09.636Z,14.89
2019-02-25T14:03:42.658Z,14.83
2019-02-25T14:06:15.692Z,14.79
2019-02-25T14:08:48.765Z,14.71
2019-02-25T14:11:21.771Z,14.66
2019-02-25T14:13:55.047Z,14.61
2019-02-25T14:16:28.489Z,14.55
2019-02-25T14:19:01.549Z,14.49
2019-02-25T14:21:36.471Z,14.39
2019-02-25T14:24:10.329Z,14.28
2019-02-25T14:26:43.210Z,14.20
2019-02-25T14:29:16.194Z,14.11
2019-02-25T14:31:51.098Z,14.07
2019-02-25T14:34:24.294Z,14.01
2019-02-25T14:36:57.941Z,13.97
2019-02-25T14:39:32.942Z,13.92
2019-02-25T14:42:07.312Z,13.86
2019-02-25T14:44:43.337Z,13.78
2019-02-25T14:47:22.216Z,13.73
2019-02-25T14:49:55.135Z,13.68
2019-02-25T14:52:29.390Z,13.61
2019-02-25T14:55:04.796Z,13.51
2019-02-25T14:57:40.970Z,13.45
2019-02-25T15:00:19.556Z,13.37
2019-02-25T15:02:55.720Z,13.28
2019-02-25T15:05:29.677Z,13.20
2019-02-25T15:08:02.694Z,13.13
2019-02-25T15:10:38.455Z,13.03
2019-02-25T15:13:15.709Z,12.94
2019-02-25T15:15:50.234Z,12.86
2019-02-25T15:18:43.044Z,12.75
2019-02-25T15:21:26.759Z,12.63
2019-02-25T15:24:00.505Z,12.56
2019-02-25T15:26:42.635Z,12.49
2019-02-25T15:29:19.463Z,12.44
2019-02-25T15:31:57.020Z,12.35
2019-02-25T15:34:33.042Z,12.25
2019-02-25T15:37:18.241Z,12.20
2019-02-25T15:39:51.851Z,12.11
2019-02-25T15:42:28.002Z,12.04
2019-02-25T15:45:04.613Z,11.97
2019-02-25T15:47:37.909Z,11.89
2019-02-25T15:50:12.835Z,11.82
2019-02-25T15:52:46.255Z,11.73
2019-02-25T15:55:20.947Z,11.65
2019-02-25T16:00:14.533Z,11.70
2019-02-25T16:02:48.700Z,11.63
2019-02-25T16:05:23.399Z,11.52
2019-02-25T16:07:58.416Z,11.44
2019-02-25T16:10:32.838Z,11.34
2019-02-25T16:13:11.095Z,11.24
2019-02-25T16:15:42.311Z,11.14
2019-02-25T16:18:15.446Z,11.04
2019-02-25T16:20:48.462Z,10.98
2019-02-25T16:23:21.450Z,10.88
2019-02-25T16:25:56.912Z,10.79
2019-02-25T16:28:31.322Z,10.69
2019-02-25T16:31:06.027Z,10.63
2019-02-25T16:33:39.784Z,10.52
2019-02-25T16:36:12.782Z,10.41
2019-02-25T16:38:45.802Z,10.33
2019-02-25T16:41:27.183Z,10.24
2019-02-25T16:43:53.230Z,10.18
2019-02-25T16:46:26.284Z,10.10
2019-02-25T16:48:59.265Z,10.01
2019-02-25T16:51:35.733Z,9.94
2019-02-25T16:54:11.091Z,9.87
2019-02-25T16:56:42.217Z,9.79
2019-02-25T16:59:15.769Z,9.74
2019-02-25T17:01:49.752Z,9.69
2019-02-25T17:04:24.946Z,9.62
2019-02-25T17:06:59.595Z,9.56
2019-02-25T17:09:34.151Z,9.49
2019-02-25T17:12:09.312Z,9.43
2019-02-25T17:14:42.161Z,9.41
2019-02-25T17:17:15.030Z,9.34
2019-02-25T17:19:47.934Z,9.32
2019-02-25T17:22:20.987Z,9.29
2019-02-25T17:24:57.870Z,9.25
2019-02-25T17:27:29.882Z,9.21
2019-02-25T17:30:02.871Z,9.19
2019-02-25T17:32:38.351Z,9.17
2019-02-25T17:35:11.929Z,9.12
2019-02-25T17:37:46.204Z,9.10
2019-02-25T17:40:19.107Z,9.08
2019-02-25T17:42:53.990Z,9.03
2019-02-25T17:45:27.728Z,8.98
2019-02-25T17:48:05.475Z,8.96
2019-02-25T17:50:37.576Z,8.93
2019-02-25T17:53:11.722Z,8.88
2019-02-25T17:55:44.819Z,8.84
2019-02-25T17:58:19.330Z,8.81
2019-02-25T18:00:54.140Z,8.77
2019-02-25T18:03:27.383Z,8.77
2019-02-25T18:06:02.431Z,8.71
2019-02-25T18:08:39.412Z,8.66
2019-02-25T18:11:13.585Z,8.62
2019-02-25T18:13:48.812Z,8.59
2019-02-25T18:16:21.683Z,8.50
2019-02-25T18:18:55.593Z,8.52
2019-02-25T18:21:30.031Z,8.49
2019-02-25T18:24:03.081Z,8.45
2019-02-25T18:26:36.423Z,8.39
2019-02-25T18:29:11.709Z,8.38
2019-02-25T18:31:48.004Z,8.35
2019-02-25T18:34:20.919Z,8.29
2019-02-25T18:36:55.333Z,8.28
2019-02-25T18:39:29.984Z,8.25
2019-02-25T18:42:03.354Z,8.22
2019-02-25T18:44:36.389Z,8.17
2019-02-25T18:47:11.579Z,8.15
2019-02-25T18:49:44.771Z,8.11
2019-02-25T18:52:17.857Z,8.10
2019-02-25T18:54:54.955Z,8.04
2019-02-25T18:57:29.438Z,8.01
2019-02-25T19:00:06.215Z,7.98
2019-02-25T19:02:42.277Z,7.94
2019-02-25T19:05:15.845Z,7.93
2019-02-25T19:07:51.266Z,7.92
2019-02-25T19:10:26.846Z,7.86
2019-02-25T19:13:00.999Z,7.87
2019-02-25T19:15:34.121Z,7.84
2019-02-25T19:18:09.471Z,7.82
2019-02-25T19:20:43.443Z,7.79
2019-02-25T19:23:16.862Z,7.79
2019-02-25T19:25:49.843Z,7.77
2019-02-25T19:28:24.436Z,7.74
2019-02-25T19:30:58.028Z,7.73
2019-02-25T19:33:31.364Z,7.71
2019-02-25T19:36:31.930Z,7.74
2019-02-25T19:39:07.471Z,7.69
2019-02-25T19:41:40.928Z,7.69
2019-02-25T19:44:14.845Z,8.94
2019-02-25T19:46:50.621Z,11.82
2019-02-25T19:49:26.311Z,12.69
2019-02-25T19:52:00.304Z,12.25
2019-02-25T19:54:36.261Z,11.76
2019-02-25T19:57:08.913Z,11.42
2019-02-25T19:59:43.389Z,11.14
2019-02-25T20:02:17.117Z,10.86
2019-02-25T20:04:52.000Z,10.62
2019-02-25T20:07:27.904Z,10.36
2019-02-25T20:09:59.813Z,10.14
2019-02-25T20:12:35.160Z,9.91
2019-02-25T20:15:11.745Z,9.70
2019-02-25T20:17:46.757Z,9.53
2019-02-25T20:20:20.430Z,9.35
2019-02-25T20:22:53.251Z,9.18
2019-02-25T20:25:28.266Z,9.06
2019-02-25T20:28:02.627Z,8.90
2019-02-25T20:30:36.068Z,8.79
2019-02-25T20:33:10.751Z,8.67
2019-02-25T20:35:48.999Z,8.56
2019-02-25T20:38:18.162Z,8.42
2019-02-25T20:40:51.575Z,10.22
2019-02-25T20:43:25.864Z,13.02
2019-02-25T20:46:01.523Z,13.68
2019-02-25T20:48:38.755Z,13.11
2019-02-25T20:51:12.028Z,12.59
2019-02-25T20:53:46.163Z,12.20
2019-02-25T20:56:22.458Z,11.84
2019-02-25T20:58:56.101Z,11.51
2019-02-25T21:01:29.040Z,11.19
2019-02-25T21:04:02.089Z,10.90
2019-02-25T21:06:35.876Z,10.63
2019-02-25T21:09:11.111Z,10.36
2019-02-25T21:11:44.326Z,10.11
2019-02-25T21:14:18.931Z,9.89
2019-02-25T21:16:53.778Z,9.69
2019-02-25T21:19:26.275Z,9.49
2019-02-25T21:21:59.775Z,9.35
2019-02-25T21:24:35.470Z,9.19
2019-02-25T21:27:10.431Z,9.06
2019-02-25T21:29:43.303Z,8.93
2019-02-25T21:32:19.965Z,8.81
2019-02-25T21:34:55.309Z,8.74
2019-02-25T21:37:29.346Z,8.64
2019-02-25T21:40:02.892Z,10.41
2019-02-25T21:42:44.349Z,13.20
2019-02-25T21:45:24.527Z,13.86
2019-02-25T21:47:59.070Z,13.28
2019-02-25T21:50:34.031Z,12.86
2019-02-25T21:53:07.560Z,12.47
2019-02-25T21:55:40.724Z,12.16
2019-02-25T21:58:21.449Z,11.86
2019-02-25T22:00:54.809Z,11.56
2019-02-25T22:03:27.780Z,11.32
2019-02-25T22:06:04.906Z,11.10
2019-02-25T22:08:38.054Z,10.86
2019-02-25T22:11:13.063Z,10.65
2019-02-25T22:13:45.798Z,10.46
2019-02-25T22:16:18.634Z,10.29
2019-02-25T22:18:54.185Z,10.11
2019-02-25T22:21:26.785Z,9.97
2019-02-25T22:24:03.001Z,9.83
2019-02-25T22:26:35.642Z,9.73
2019-02-25T22:29:09.993Z,9.60
2019-02-25T22:31:44.257Z,9.50
2019-02-25T22:34:18.647Z,9.41
2019-02-25T22:36:53.455Z,9.34
2019-02-25T22:39:27.866Z,9.24
2019-02-25T22:42:03.012Z,9.18
2019-02-25T22:44:36.730Z,9.10
2019-02-25T22:47:11.637Z,9.06
2019-02-25T22:49:43.969Z,9.00
2019-02-25T22:52:22.306Z,8.96
2019-02-25T22:54:56.192Z,10.84
2019-02-25T22:57:31.619Z,13.63
2019-02-25T23:00:06.402Z,14.24
2019-02-25T23:02:43.139Z,13.66
2019-02-25T23:05:18.584Z,13.23
2019-02-25T23:07:50.642Z,12.84
2019-02-25T23:10:24.366Z,12.52
2019-02-25T23:12:58.175Z,12.21
2019-02-25T23:15:31.014Z,11.91
2019-02-25T23:18:05.621Z,11.66
2019-02-25T23:20:38.391Z,11.39
2019-02-25T23:23:11.223Z,11.15
2019-02-25T23:25:46.875Z,10.94
2019-02-25T23:28:18.950Z,10.73
2019-02-25T23:30:53.299Z,10.53
2019-02-25T23:33:27.498Z,10.33
2019-02-25T23:36:00.277Z,10.21
2019-02-25T23:38:33.058Z,10.03
2019-02-25T23:41:07.617Z,9.90
2019-02-25T23:43:42.257Z,9.74
2019-02-25T23:46:14.984Z,9.62
2019-02-25T23:48:47.737Z,9.52
2019-02-25T23:51:23.382Z,9.41
2019-02-25T23:53:57.591Z,11.25
2019-02-25T23:56:31.760Z,14.03
2019-02-25T23:59:04.825Z,14.51
